Time;durP1;ratioP1;P1;durP2;ratioP2;P2;SDS_P1;SDS_P2;PMS_P1;PMS_P2;Temp;Humidity;BMP_temperature;BMP_pressure;BME280_temperature;BME280_humidity;BME280_pressure;Samples;Min_cycle;Max_cycle;Signal;HPM_P1;HPM_P2
2023/10/16 00:02:12;;;;;;;0.17;0.17;;;19.60;64.70;;;;;;5091142;28;20166;-74
2023/10/16 00:04:45;;;;;;;0.20;0.20;;;19.60;64.80;;;;;;5090788;28;20051;-74
2023/10/16 00:07:13;;;;;;;0.20;0.20;;;19.60;64.50;;;;;;5072292;28;20532;-74
2023/10/16 00:09:40;;;;;;;0.20;0.20;;;19.60;64.70;;;;;;5068644;28;20219;-74
2023/10/16 00:12:05;;;;;;;0.10;0.10;;;19.60;64.70;;;;;;5086879;28;20044;-74
2023/10/16 00:14:31;;;;;;;0.20;0.20;;;19.60;64.60;;;;;;5094882;28;20126;-74
2023/10/16 00:16:57;;;;;;;0.32;0.32;;;19.60;64.80;;;;;;5088803;28;20027;-74
2023/10/16 00:19:25;;;;;;;0.20;0.20;;;19.60;65.70;;;;;;5094241;28;20118;-74
2023/10/16 00:21:52;;;;;;;0.10;0.10;;;19.50;64.80;;;;;;5083213;28;20071;-75
2023/10/16 00:24:17;;;;;;;0.57;0.47;;;19.60;64.80;;;;;;5106805;27;20529;-74
2023/10/16 00:26:49;;;;;;;0.10;0.10;;;19.60;64.50;;;;;;5094278;28;20174;-74
2023/10/16 00:29:24;;;;;;;0.20;0.20;;;19.60;64.60;;;;;;5091889;28;20036;-74
2023/10/16 00:31:51;;;;;;;0.47;0.20;;;19.70;64.20;;;;;;5079958;28;20040;-74
2023/10/16 00:34:20;;;;;;;0.38;0.20;;;19.60;64.30;;;;;;5092933;28;20031;-74
2023/10/16 00:36:47;;;;;;;0.20;0.10;;;19.60;65.30;;;;;;5087502;28;20504;-74
2023/10/16 00:39:12;;;;;;;0.15;0.15;;;19.60;64.50;;;;;;5096059;28;20438;-74
2023/10/16 00:41:39;;;;;;;0.20;0.20;;;19.50;64.40;;;;;;5096197;28;20497;-74
2023/10/16 00:44:05;;;;;;;0.50;0.20;;;19.50;64.40;;;;;;5103224;28;20067;-74
2023/10/16 00:46:36;;;;;;;0.10;0.10;;;19.50;64.40;;;;;;5075750;28;20492;-74
2023/10/16 00:49:05;;;;;;;0.20;0.20;;;19.50;64.40;;;;;;5088245;28;20039;-74
2023/10/16 00:51:33;;;;;;;0.17;0.13;;;19.50;64.50;;;;;;5074128;28;21007;-74
2023/10/16 00:53:59;;;;;;;0.20;0.10;;;19.50;64.40;;;;;;5103040;27;20597;-74
2023/10/16 00:56:28;;;;;;;0.43;0.38;;;19.50;64.30;;;;;;5110189;27;20145;-74
2023/10/16 00:58:57;;;;;;;0.15;0.15;;;19.50;64.30;;;;;;5089914;28;20043;-74
2023/10/16 01:01:24;;;;;;;0.10;0.10;;;19.50;64.30;;;;;;5093078;28;20444;-74
2023/10/16 01:03:50;;;;;;;0.17;0.17;;;19.50;64.40;;;;;;5095855;28;20417;-74
2023/10/16 01:06:16;;;;;;;0.20;0.20;;;19.50;64.40;;;;;;5089537;28;20127;-74
2023/10/16 01:08:49;;;;;;;0.13;0.13;;;19.50;65.30;;;;;;5081487;28;20043;-74
2023/10/16 01:11:18;;;;;;;0.10;0.10;;;19.50;64.40;;;;;;5099214;28;20070;-74
2023/10/16 01:13:47;;;;;;;0.10;0.10;;;19.50;64.30;;;;;;5089581;28;20032;-74
2023/10/16 01:16:18;;;;;;;0.10;0.10;;;19.50;64.30;;;;;;5091935;28;20382;-74
2023/10/16 01:18:45;;;;;;;0.10;0.10;;;19.50;64.40;;;;;;5074643;28;20047;-74
2023/10/16 01:21:14;;;;;;;0.10;0.10;;;19.50;64.30;;;;;;5091705;28;20055;-74
2023/10/16 01:23:41;;;;;;;0.10;0.10;;;19.50;64.40;;;;;;5091752;28;21179;-74
2023/10/16 01:26:08;;;;;;;0.28;0.20;;;19.50;64.30;;;;;;5091364;28;20049;-74
2023/10/16 01:28:33;;;;;;;0.20;0.20;;;19.50;64.20;;;;;;5077194;28;20092;-74
2023/10/16 01:31:00;;;;;;;0.15;0.15;;;19.50;64.20;;;;;;5086870;28;20040;-74
2023/10/16 01:33:26;;;;;;;0.10;0.10;;;19.50;64.30;;;;;;5089904;28;20027;-74
2023/10/16 01:35:52;;;;;;;0.10;0.10;;;19.50;65.30;;;;;;5075098;28;20113;-74
2023/10/16 01:38:18;;;;;;;0.10;0.10;;;19.50;64.50;;;;;;5093616;28;20036;-74
2023/10/16 01:43:35;;;;;;;0.25;0.20;;;19.50;64.40;;;;;;5087333;28;20040;-74
2023/10/16 01:46:14;;;;;;;0.30;0.10;;;19.50;64.60;;;;;;5090434;28;20510;-74
2023/10/16 01:48:44;;;;;;;0.10;0.10;;;19.40;64.30;;;;;;5092479;28;20043;-74
2023/10/16 01:51:18;;;;;;;0.08;0.08;;;19.40;64.30;;;;;;5100987;28;20401;-74
2023/10/16 01:53:44;;;;;;;0.05;0.05;;;19.40;64.10;;;;;;5080628;28;20389;-74
2023/10/16 01:56:12;;;;;;;0.10;0.10;;;19.40;64.20;;;;;;5095118;28;20065;-74
2023/10/16 01:58:45;;;;;;;0.10;0.10;;;19.40;64.20;;;;;;5093238;28;20059;-74
2023/10/16 02:01:12;;;;;;;0.35;0.30;;;19.40;64.10;;;;;;5091642;28;20043;-74
2023/10/16 02:03:38;;;;;;;0.75;0.30;;;19.40;64.10;;;;;;5094282;28;20048;-74
2023/10/16 02:06:04;;;;;;;0.10;0.10;;;19.40;64.00;;;;;;5095375;28;20044;-74
2023/10/16 02:08:30;;;;;;;0.10;0.10;;;19.40;64.00;;;;;;5105115;28;20404;-74
2023/10/16 02:10:57;;;;;;;0.15;0.15;;;19.50;64.10;;;;;;5090723;28;20577;-74
2023/10/16 02:13:22;;;;;;;0.10;0.10;;;19.40;64.00;;;;;;5088585;28;20036;-74
2023/10/16 02:15:48;;;;;;;0.20;0.20;;;19.40;64.10;;;;;;5099976;28;20696;-74
2023/10/16 02:18:22;;;;;;;0.05;0.05;;;19.40;64.00;;;;;;5100222;28;20032;-74
2023/10/16 02:20:49;;;;;;;0.10;0.10;;;19.40;64.00;;;;;;5098919;28;20024;-74
2023/10/16 02:23:15;;;;;;;0.75;0.13;;;19.40;64.00;;;;;;5103637;28;20749;-74
2023/10/16 02:25:41;;;;;;;0.20;0.20;;;19.40;64.90;;;;;;5095232;28;20055;-74
2023/10/16 02:28:08;;;;;;;0.30;0.20;;;19.40;64.00;;;;;;5093359;28;20040;-73
2023/10/16 02:30:36;;;;;;;0.10;0.10;;;19.40;64.10;;;;;;5087175;28;20103;-74
2023/10/16 02:33:13;;;;;;;0.10;0.10;;;19.40;64.00;;;;;;5099007;28;20051;-74
2023/10/16 02:35:42;;;;;;;0.17;0.10;;;19.40;64.00;;;;;;5092711;28;20120;-74
2023/10/16 02:38:23;;;;;;;0.20;0.20;;;19.40;64.00;;;;;;5100896;28;20062;-74
2023/10/16 02:40:50;;;;;;;0.20;0.20;;;19.40;64.10;;;;;;5092909;28;20047;-74
2023/10/16 02:43:20;;;;;;;0.20;0.20;;;19.40;64.10;;;;;;5095956;28;20050;-74
2023/10/16 02:45:47;;;;;;;0.40;0.20;;;19.40;64.10;;;;;;5086805;28;20050;-74
2023/10/16 02:48:16;;;;;;;0.20;0.20;;;19.40;64.10;;;;;;5078447;28;20032;-74
2023/10/16 02:50:49;;;;;;;0.80;0.25;;;19.40;64.10;;;;;;5099039;28;20139;-74
2023/10/16 02:53:21;;;;;;;0.17;0.17;;;19.40;64.00;;;;;;5094740;28;20063;-74
2023/10/16 02:55:49;;;;;;;0.10;0.10;;;19.40;64.00;;;;;;5093901;28;20038;-74
2023/10/16 02:58:15;;;;;;;0.30;0.10;;;19.40;64.10;;;;;;5089649;28;20124;-74
2023/10/16 03:00:49;;;;;;;0.20;0.20;;;19.40;64.10;;;;;;5087770;28;20058;-74
2023/10/16 03:03:18;;;;;;;0.10;0.10;;;19.40;64.00;;;;;;5096928;28;20033;-74
2023/10/16 03:05:44;;;;;;;0.52;0.30;;;19.40;64.00;;;;;;5083952;28;20665;-74
2023/10/16 03:08:10;;;;;;;0.40;0.10;;;19.40;64.10;;;;;;5094977;28;20131;-74
2023/10/16 03:10:36;;;;;;;0.20;0.10;;;19.40;64.10;;;;;;5090335;28;20567;-74
2023/10/16 03:13:06;;;;;;;0.10;0.10;;;19.40;64.10;;;;;;5093320;28;20044;-73
2023/10/16 03:15:47;;;;;;;0.17;0.17;;;19.40;64.10;;;;;;5091704;28;20379;-74
2023/10/16 03:18:17;;;;;;;0.20;0.20;;;19.30;64.00;;;;;;5093871;28;20047;-74
2023/10/16 03:20:44;;;;;;;0.15;0.15;;;19.30;64.00;;;;;;5090244;28;20040;-74
2023/10/16 03:23:12;;;;;;;0.32;0.20;;;19.40;64.10;;;;;;5094144;28;20044;-74
2023/10/16 03:28:07;;;;;;;0.10;0.10;;;19.40;64.00;;;;;;5090323;28;20044;-74
2023/10/16 03:30:32;;;;;;;0.20;0.20;;;19.40;64.00;;;;;;5096005;28;20051;-74
2023/10/16 03:32:59;;;;;;;0.20;0.20;;;19.40;64.80;;;;;;5096069;28;20044;-74
2023/10/16 03:35:31;;;;;;;0.20;0.10;;;19.30;64.00;;;;;;5113347;27;20036;-74
2023/10/16 03:37:57;;;;;;;0.28;0.10;;;19.30;64.00;;;;;;5087754;28;20159;-74
2023/10/16 03:40:27;;;;;;;0.10;0.10;;;19.40;64.00;;;;;;5091660;28;20103;-74
2023/10/16 03:42:53;;;;;;;0.10;0.00;;;19.40;63.90;;;;;;5089263;28;20043;-74
2023/10/16 03:45:21;;;;;;;0.15;0.15;;;19.30;64.10;;;;;;5095494;28;20052;-73
2023/10/16 03:47:57;;;;;;;0.20;0.10;;;19.30;64.10;;;;;;5093206;28;20097;-74
2023/10/16 03:50:26;;;;;;;0.15;0.10;;;19.30;64.10;;;;;;5092177;28;20389;-74
2023/10/16 03:52:54;;;;;;;0.10;0.10;;;19.30;64.00;;;;;;5092082;28;20385;-74
2023/10/16 03:55:24;;;;;;;0.93;0.30;;;19.30;64.00;;;;;;5074055;28;20409;-73
2023/10/16 03:57:51;;;;;;;0.20;0.20;;;19.30;64.10;;;;;;5090110;28;20036;-74
2023/10/16 04:00:26;;;;;;;0.28;0.10;;;19.30;64.00;;;;;;5091358;28;20045;-74
2023/10/16 04:02:51;;;;;;;0.10;0.10;;;19.30;64.00;;;;;;5095612;28;20046;-74
2023/10/16 04:08:01;;;;;;;0.88;0.30;;;19.30;64.00;;;;;;5090422;28;20051;-74
2023/10/16 04:10:30;;;;;;;0.10;0.10;;;19.30;64.10;;;;;;5090800;28;20047;-73
2023/10/16 04:12:57;;;;;;;0.30;0.15;;;19.30;64.00;;;;;;5094283;28;20039;-74
2023/10/16 04:18:17;;;;;;;0.20;0.10;;;19.30;64.00;;;;;;5090782;28;20067;-74
2023/10/16 04:20:43;;;;;;;0.57;0.20;;;19.30;64.00;;;;;;5098025;28;20095;-74
2023/10/16 04:23:37;;;;;;;0.10;0.10;;;19.30;63.90;;;;;;5094640;28;20138;-74
2023/10/16 04:29:33;;;;;;;0.30;0.30;;;19.30;63.90;;;;;;5093164;28;20521;-74
2023/10/16 04:31:44;;;;;;;0.32;0.20;;;19.30;63.90;;;;;;5085755;28;21218;-74
2023/10/16 04:34:24;;;;;;;0.20;0.20;;;19.30;64.00;;;;;;5086233;28;20133;-74
2023/10/16 04:36:52;;;;;;;0.20;0.13;;;19.30;63.90;;;;;;5093917;28;20054;-74
2023/10/16 04:44:49;;;;;;;0.10;0.10;;;19.20;64.00;;;;;;5081791;28;20089;-74
2023/10/16 04:47:17;;;;;;;0.10;0.10;;;19.20;64.10;;;;;;5083307;28;20044;-74
2023/10/16 04:49:59;;;;;;;0.30;0.30;;;19.20;64.00;;;;;;5083141;28;20052;-74
2023/10/16 04:55:09;;;;;;;0.10;0.10;;;19.20;63.90;;;;;;5056635;28;20641;-73
2023/10/16 04:57:47;;;;;;;0.20;0.10;;;19.20;63.80;;;;;;5082060;28;20048;-73
2023/10/16 05:00:47;;;;;;;0.20;0.20;;;19.20;63.70;;;;;;5090690;28;20541;-74
2023/10/16 05:03:22;;;;;;;0.10;0.10;;;19.20;63.70;;;;;;5084670;28;20041;-73
2023/10/16 05:06:04;;;;;;;0.20;0.10;;;19.20;63.80;;;;;;5071661;28;20456;-74
2023/10/16 05:08:34;;;;;;;0.10;0.10;;;19.20;64.70;;;;;;5089444;28;20552;-73
2023/10/16 05:13:55;;;;;;;0.20;0.20;;;19.20;63.70;;;;;;5042241;28;20142;-73
2023/10/16 05:16:35;;;;;;;0.17;0.10;;;19.20;63.70;;;;;;5088945;28;20043;-73
2023/10/16 05:19:04;;;;;;;0.10;0.10;;;19.20;63.80;;;;;;5083747;28;20048;-74
2023/10/16 06:14:13;;;;;;;0.20;0.20;;;19.20;64.90;;;;;;5107193;27;20093;-73
2023/10/16 06:16:57;;;;;;;0.32;0.20;;;19.20;64.10;;;;;;5089652;28;20085;-75
2023/10/16 06:19:22;;;;;;;1.65;0.20;;;19.20;64.20;;;;;;5085189;28;20504;-74
2023/10/16 06:21:56;;;;;;;2.35;0.30;;;19.20;64.90;;;;;;5075283;28;20110;-73
2023/10/16 06:24:25;;;;;;;;;;;19.20;64.70;;;;;;5098925;28;20043;-73
2023/10/16 06:26:55;;;;;;;2.65;0.20;;;19.20;65.90;;;;;;5091423;28;19923;-73
2023/10/16 06:29:24;;;;;;;0.85;0.10;;;19.20;66.00;;;;;;5099248;28;20031;-73
2023/10/16 06:31:58;;;;;;;0.35;0.22;;;19.30;66.70;;;;;;5089894;28;20074;-73
2023/10/16 06:34:24;;;;;;;0.20;0.20;;;19.30;66.60;;;;;;5080716;28;20044;-73
2023/10/16 06:36:53;;;;;;;0.30;0.25;;;19.30;68.90;;;;;;5076319;28;20104;-73
2023/10/16 06:39:35;;;;;;;1.25;0.20;;;19.20;68.00;;;;;;5100999;28;20056;-74
2023/10/16 06:42:04;;;;;;;1.05;0.52;;;19.20;68.20;;;;;;5085112;28;20056;-74
2023/10/16 06:44:31;;;;;;;0.70;0.50;;;19.10;60.00;;;;;;5096511;28;20131;-74
2023/10/16 06:46:59;;;;;;;3.25;0.52;;;18.90;58.10;;;;;;5076639;28;20043;-73
2023/10/16 06:49:27;;;;;;;1.13;0.60;;;18.70;55.20;;;;;;5095907;28;20032;-73
2023/10/16 06:51:56;;;;;;;2.25;0.70;;;18.80;54.10;;;;;;5094740;28;20040;-73
2023/10/16 06:54:23;;;;;;;1.58;0.50;;;18.80;58.30;;;;;;5096716;28;20043;-73
2023/10/16 06:56:49;;;;;;;0.77;0.40;;;18.80;57.90;;;;;;5096347;28;20043;-73
2023/10/16 06:59:16;;;;;;;1.48;0.50;;;18.80;59.80;;;;;;5090621;28;20743;-73
2023/10/16 07:01:46;;;;;;;2.45;0.50;;;18.90;59.50;;;;;;5098510;28;20418;-73
2023/10/16 07:04:15;;;;;;;1.77;0.43;;;18.90;59.50;;;;;;5090204;28;20043;-72
2023/10/16 07:06:43;;;;;;;1.50;0.40;;;19.00;60.60;;;;;;5099528;28;20051;-72
2023/10/16 07:09:09;;;;;;;0.70;0.52;;;19.00;60.60;;;;;;5094497;28;20037;-72
2023/10/16 07:11:35;;;;;;;1.10;0.60;;;19.00;61.00;;;;;;5078252;28;20422;-73
2023/10/16 07:14:01;;;;;;;1.02;0.57;;;19.00;60.40;;;;;;5103620;27;20541;-72
2023/10/16 07:16:27;;;;;;;1.55;0.50;;;19.00;60.80;;;;;;5092649;28;20051;-72
2023/10/16 07:18:57;;;;;;;1.33;0.60;;;19.00;61.30;;;;;;5087444;28;20089;-73
2023/10/16 07:21:24;;;;;;;0.65;0.40;;;19.00;62.00;;;;;;5089708;28;20717;-73
2023/10/16 07:23:53;;;;;;;0.50;0.30;;;19.00;62.10;;;;;;5085592;28;20533;-73
2023/10/16 07:26:19;;;;;;;0.32;0.32;;;19.00;62.60;;;;;;5090012;28;20070;-73
2023/10/16 07:28:51;;;;;;;1.05;0.40;;;19.00;62.70;;;;;;5085596;28;20123;-73
2023/10/16 07:31:16;;;;;;;0.57;0.40;;;19.00;62.70;;;;;;5098010;28;20039;-73
2023/10/16 07:33:50;;;;;;;0.65;0.65;;;19.00;62.80;;;;;;5082708;28;20041;-73
2023/10/16 07:36:17;;;;;;;0.98;0.35;;;19.00;62.80;;;;;;5085348;28;20039;-73
2023/10/16 07:38:44;;;;;;;0.47;0.43;;;19.00;63.90;;;;;;5087041;28;20136;-73
2023/10/16 07:41:11;;;;;;;0.40;0.35;;;19.00;63.40;;;;;;5089028;28;20036;-73
2023/10/16 07:43:37;;;;;;;0.40;0.40;;;19.00;63.60;;;;;;5069249;28;20048;-73
2023/10/16 07:48:40;;;;;;;0.38;0.30;;;19.00;63.90;;;;;;5084109;28;20040;-73
2023/10/16 07:51:06;;;;;;;0.77;0.40;;;19.00;64.00;;;;;;5083804;28;20399;-73
2023/10/16 07:53:36;;;;;;;0.63;0.40;;;19.00;63.70;;;;;;5090007;28;20494;-73
2023/10/16 07:56:02;;;;;;;0.43;0.38;;;19.00;63.70;;;;;;5087281;28;20416;-73
2023/10/16 07:58:34;;;;;;;0.63;0.40;;;19.00;63.80;;;;;;5088132;28;20047;-73
2023/10/16 08:03:36;;;;;;;0.77;0.60;;;19.00;63.50;;;;;;5098313;28;20485;-73
2023/10/16 08:06:05;;;;;;;1.25;0.40;;;19.00;63.60;;;;;;5097927;28;20028;-73
2023/10/16 08:08:37;;;;;;;0.30;0.22;;;19.00;63.70;;;;;;5097460;28;20044;-73
2023/10/16 08:11:18;;;;;;;0.75;0.30;;;19.00;64.50;;;;;;5074654;28;20040;-73
2023/10/16 08:13:49;;;;;;;1.48;0.43;;;19.00;63.80;;;;;;5086785;28;20032;-73
2023/10/16 08:16:18;;;;;;;0.57;0.45;;;19.00;63.80;;;;;;5090229;28;20036;-73
2023/10/16 08:18:47;;;;;;;0.50;0.40;;;19.00;63.90;;;;;;5098072;28;20040;-73
2023/10/16 08:21:25;;;;;;;0.57;0.20;;;19.00;63.80;;;;;;5095321;28;20047;-73
2023/10/16 08:23:58;;;;;;;0.55;0.30;;;19.00;63.70;;;;;;5091295;28;20055;-73
2023/10/16 08:26:29;;;;;;;1.05;0.40;;;19.10;63.70;;;;;;5094133;28;20042;-73
2023/10/16 08:29:11;;;;;;;0.30;0.30;;;19.10;63.90;;;;;;5091112;28;20131;-74
2023/10/16 08:31:41;;;;;;;0.32;0.30;;;19.00;63.80;;;;;;5098189;27;20031;-73
2023/10/16 08:34:07;;;;;;;1.55;0.50;;;19.00;64.10;;;;;;5071929;28;20051;-73
2023/10/16 08:36:33;;;;;;;0.68;0.47;;;19.00;64.00;;;;;;5092345;28;20051;-73
2023/10/16 08:39:08;;;;;;;0.70;0.50;;;19.10;64.00;;;;;;5092891;28;20075;-73
2023/10/16 08:41:42;;;;;;;0.35;0.30;;;19.10;63.90;;;;;;5094096;28;21260;-73
2023/10/16 08:44:18;;;;;;;0.30;0.20;;;19.10;63.80;;;;;;5080928;28;20408;-73
2023/10/16 08:46:44;;;;;;;0.38;0.30;;;19.10;63.80;;;;;;5074470;28;20448;-73
2023/10/16 08:49:10;;;;;;;0.65;0.50;;;19.10;63.90;;;;;;5090298;28;20053;-73
2023/10/16 08:51:36;;;;;;;0.40;0.20;;;19.10;63.90;;;;;;5093703;28;20036;-73
2023/10/16 08:54:05;;;;;;;0.77;0.50;;;19.10;63.80;;;;;;5079862;28;20098;-74
2023/10/16 08:56:31;;;;;;;0.28;0.25;;;19.10;63.90;;;;;;5092087;28;20044;-73
2023/10/16 08:58:57;;;;;;;0.80;0.28;;;19.10;63.90;;;;;;5091740;28;20040;-73
2023/10/16 09:01:26;;;;;;;0.32;0.30;;;19.10;63.90;;;;;;5089416;28;20039;-73
2023/10/16 09:04:05;;;;;;;0.98;0.55;;;19.10;64.10;;;;;;5090426;28;20430;-73
2023/10/16 09:06:34;;;;;;;0.28;0.20;;;19.10;64.20;;;;;;5093661;28;20550;-73
2023/10/16 09:09:00;;;;;;;1.05;0.63;;;19.20;64.20;;;;;;5089216;28;20040;-73
2023/10/16 09:11:26;;;;;;;1.67;0.38;;;19.20;64.20;;;;;;5097313;28;20035;-73
2023/10/16 09:13:52;;;;;;;0.30;0.30;;;19.20;63.90;;;;;;5072347;28;20082;-73
2023/10/16 09:16:23;;;;;;;0.25;0.25;;;19.20;64.50;;;;;;5089819;28;20045;-73
2023/10/16 09:18:57;;;;;;;0.32;0.30;;;19.30;64.80;;;;;;5070759;28;20044;-73
2023/10/16 09:21:23;;;;;;;0.50;0.35;;;19.20;63.60;;;;;;5105524;28;20100;-73
2023/10/16 09:23:51;;;;;;;0.20;0.20;;;19.30;63.20;;;;;;5061158;28;20067;-73
2023/10/16 09:26:32;;;;;;;0.73;0.40;;;19.30;62.20;;;;;;5096482;28;20174;-73
2023/10/16 09:29:13;;;;;;;0.35;0.20;;;19.30;62.10;;;;;;5092468;28;20040;-74
2023/10/16 09:31:40;;;;;;;0.15;0.13;;;19.40;62.40;;;;;;5093342;28;20036;-73
2023/10/16 09:34:05;;;;;;;0.20;0.20;;;19.40;62.70;;;;;;5095563;28;20106;-73
2023/10/16 09:36:36;;;;;;;1.55;0.30;;;19.40;62.80;;;;;;5080147;28;22243;-73
2023/10/16 09:39:16;;;;;;;0.50;0.40;;;19.50;62.80;;;;;;5062459;28;20052;-74
2023/10/16 09:41:42;;;;;;;0.50;0.20;;;19.40;62.90;;;;;;5103704;28;20044;-73
2023/10/16 09:44:23;;;;;;;0.32;0.30;;;19.50;62.60;;;;;;5093424;28;20047;-73
2023/10/16 09:49:28;;;;;;;0.32;0.30;;;19.50;62.70;;;;;;5092850;28;20501;-74
2023/10/16 09:52:03;;;;;;;0.20;0.20;;;19.50;62.70;;;;;;5091769;28;20040;-73
2023/10/16 09:54:29;;;;;;;0.22;0.20;;;19.50;62.80;;;;;;5093391;28;20039;-73
2023/10/16 09:56:59;;;;;;;0.30;0.17;;;19.50;62.80;;;;;;5098061;28;20122;-73
2023/10/16 09:59:43;;;;;;;0.20;0.20;;;19.50;62.90;;;;;;5095453;28;20044;-73
2023/10/16 10:02:19;;;;;;;0.30;0.28;;;19.50;63.20;;;;;;5098616;28;20039;-73
2023/10/16 10:04:59;;;;;;;0.20;0.20;;;19.50;63.20;;;;;;5078022;28;20036;-73
2023/10/16 10:07:34;;;;;;;0.30;0.30;;;19.50;63.00;;;;;;5079988;28;20042;-73
2023/10/16 10:10:37;;;;;;;0.40;0.22;;;19.50;63.10;;;;;;5071984;28;20080;-74
2023/10/16 10:12:47;;;;;;;0.47;0.28;;;19.50;63.10;;;;;;5076312;28;20040;-73
2023/10/16 10:15:29;;;;;;;0.28;0.20;;;19.50;62.80;;;;;;5083356;28;20048;-73
2023/10/16 10:17:55;;;;;;;0.32;0.20;;;19.50;63.00;;;;;;5079998;28;20032;-73
2023/10/16 10:20:31;;;;;;;0.80;0.43;;;19.50;63.00;;;;;;5099970;28;20404;-73
2023/10/16 10:22:58;;;;;;;0.57;0.30;;;19.50;62.20;;;;;;5073545;28;20066;-73
2023/10/16 10:25:35;;;;;;;0.30;0.30;;;19.50;63.10;;;;;;5073579;28;20039;-73
2023/10/16 10:28:09;;;;;;;0.30;0.25;;;19.50;61.80;;;;;;5071480;28;20043;-74
2023/10/16 10:30:38;;;;;;;0.40;0.40;;;19.50;61.50;;;;;;5082600;28;20043;-73
2023/10/16 10:33:04;;;;;;;0.40;0.40;;;19.50;61.60;;;;;;5086796;28;20044;-73
2023/10/16 10:35:29;;;;;;;0.40;0.30;;;19.60;61.80;;;;;;5088651;28;20052;-73
2023/10/16 10:38:17;;;;;;;0.20;0.20;;;19.60;61.90;;;;;;5089127;28;20050;-73
2023/10/16 10:41:08;;;;;;;0.63;0.10;;;19.60;62.20;;;;;;5085356;28;20667;-73
2023/10/16 10:43:46;;;;;;;0.40;0.30;;;19.60;62.40;;;;;;5075453;28;20044;-73
2023/10/16 10:46:22;;;;;;;0.30;0.30;;;19.60;62.30;;;;;;5084369;28;20044;-73
2023/10/16 10:48:48;;;;;;;0.20;0.20;;;19.60;62.20;;;;;;5075897;28;20043;-73
2023/10/16 10:51:14;;;;;;;0.30;0.30;;;19.60;62.30;;;;;;5081509;28;20047;-73
2023/10/16 10:53:59;;;;;;;0.43;0.30;;;19.60;62.30;;;;;;5078669;28;20040;-73
2023/10/16 10:56:38;;;;;;;;;;;19.60;62.30;;;;;;5085343;28;20036;-73
2023/10/16 10:59:09;;;;;;;4.13;0.40;;;19.70;62.30;;;;;;5083306;28;19976;-74
2023/10/16 11:01:37;;;;;;;0.20;0.20;;;19.70;62.30;;;;;;5088887;28;20481;-73
2023/10/16 11:04:15;;;;;;;0.20;0.20;;;19.70;62.40;;;;;;5087556;28;20518;-73
2023/10/16 11:06:49;;;;;;;0.30;0.30;;;19.70;62.50;;;;;;5072652;28;20059;-73
2023/10/16 11:09:18;;;;;;;;;;;19.70;62.40;;;;;;5083626;28;20043;-73
2023/10/16 11:11:47;;;;;;;0.32;0.30;;;19.70;62.40;;;;;;5087030;28;19924;-73
2023/10/16 11:14:13;;;;;;;0.30;0.30;;;19.70;62.30;;;;;;5083356;28;20037;-73
2023/10/16 11:16:45;;;;;;;0.50;0.40;;;19.70;62.50;;;;;;5075338;28;20124;-73
2023/10/16 11:19:11;;;;;;;0.20;0.20;;;19.70;62.40;;;;;;5085326;28;20123;-74
2023/10/16 11:21:43;;;;;;;0.60;0.30;;;19.70;62.40;;;;;;5078996;28;20138;-73
2023/10/16 11:24:11;;;;;;;0.30;0.30;;;19.70;62.40;;;;;;5068477;28;20098;-74
2023/10/16 11:26:38;;;;;;;0.25;0.25;;;19.70;62.40;;;;;;5094452;28;20031;-74
2023/10/16 11:29:04;;;;;;;0.73;0.30;;;19.70;62.40;;;;;;5095229;28;20492;-73
2023/10/16 11:31:30;;;;;;;0.55;0.20;;;19.70;62.50;;;;;;5088482;28;20425;-73
2023/10/16 11:34:29;;;;;;;0.32;0.22;;;19.70;62.50;;;;;;5094929;28;20031;-73
2023/10/16 11:36:50;;;;;;;0.30;0.30;;;19.70;62.60;;;;;;5087699;28;20122;-73
2023/10/16 11:39:19;;;;;;;0.40;0.20;;;19.80;62.50;;;;;;5085429;28;20124;-74
2023/10/16 11:41:46;;;;;;;0.30;0.30;;;19.80;63.20;;;;;;5093962;28;20512;-73
2023/10/16 11:44:15;;;;;;;0.20;0.20;;;19.80;62.50;;;;;;5083830;28;20032;-74
2023/10/16 11:46:44;;;;;;;0.20;0.20;;;19.70;62.40;;;;;;5057335;28;20028;-73
2023/10/16 11:51:49;;;;;;;0.25;0.25;;;19.80;62.50;;;;;;5088955;28;20421;-73
2023/10/16 11:54:19;;;;;;;0.43;0.30;;;19.70;53.80;;;;;;5081693;28;20116;-74
2023/10/16 11:56:47;;;;;;;0.40;0.40;;;19.70;58.80;;;;;;5081327;28;20096;-73
2023/10/16 11:59:15;;;;;;;0.40;0.40;;;19.80;58.60;;;;;;5072928;28;20038;-74
2023/10/16 12:01:41;;;;;;;0.57;0.38;;;19.80;56.30;;;;;;5077388;28;20494;-73
2023/10/16 12:04:07;;;;;;;0.85;0.47;;;19.70;55.20;;;;;;5088223;28;20039;-73
2023/10/16 12:06:33;;;;;;;0.63;0.35;;;19.70;53.70;;;;;;5097903;28;20101;-73
2023/10/16 12:08:59;;;;;;;2.13;0.55;;;19.70;52.60;;;;;;5075576;28;20048;-73
2023/10/16 12:11:24;;;;;;;0.77;0.60;;;19.70;48.70;;;;;;5096488;28;20500;-73
2023/10/16 12:13:51;;;;;;;1.15;0.80;;;19.70;48.00;;;;;;5094829;28;20051;-73
2023/10/16 12:16:24;;;;;;;1.25;0.65;;;19.60;45.80;;;;;;5095637;28;20043;-73
2023/10/16 12:18:51;;;;;;;0.57;0.57;;;19.60;47.70;;;;;;5090561;28;20044;-73
2023/10/16 12:21:17;;;;;;;0.70;0.47;;;19.60;48.70;;;;;;5086984;28;20033;-74
2023/10/16 12:23:43;;;;;;;0.52;0.52;;;19.60;47.10;;;;;;5091752;28;20115;-73
2023/10/16 12:26:09;;;;;;;0.95;0.50;;;19.60;47.50;;;;;;5088928;28;20039;-73
2023/10/16 12:28:34;;;;;;;0.57;0.40;;;19.60;46.50;;;;;;5065697;28;20073;-73
2023/10/16 12:31:02;;;;;;;0.50;0.50;;;19.60;47.80;;;;;;5087156;28;20101;-73
2023/10/16 12:33:28;;;;;;;0.60;0.40;;;19.50;46.20;;;;;;5088708;28;20127;-73
2023/10/16 12:35:57;;;;;;;1.95;0.50;;;19.50;49.30;;;;;;5091733;28;20169;-72
2023/10/16 12:38:25;;;;;;;0.45;0.30;;;19.50;48.60;;;;;;5092896;28;20054;-72
2023/10/16 12:40:55;;;;;;;0.55;0.40;;;19.60;48.50;;;;;;5084869;28;20039;-73
2023/10/16 12:43:21;;;;;;;0.50;0.50;;;19.60;47.10;;;;;;5084264;28;20127;-72
2023/10/16 12:45:50;;;;;;;0.65;0.50;;;19.60;46.00;;;;;;5087486;28;20046;-72
2023/10/16 12:48:17;;;;;;;0.68;0.60;;;19.60;47.10;;;;;;5083255;28;20040;-72
2023/10/16 12:50:47;;;;;;;1.90;0.70;;;19.60;46.90;;;;;;5093624;28;20526;-71
2023/10/16 12:53:12;;;;;;;1.38;0.68;;;19.50;47.60;;;;;;5098028;28;20495;-72
2023/10/16 12:55:40;;;;;;;0.85;0.70;;;19.50;49.60;;;;;;5095121;28;20581;-72
2023/10/16 12:58:10;;;;;;;0.63;0.50;;;19.60;50.40;;;;;;5090234;28;20068;-73
2023/10/16 13:00:39;;;;;;;2.33;0.60;;;19.60;47.80;;;;;;5084561;28;20138;-73
2023/10/16 13:03:13;;;;;;;0.80;0.80;;;19.60;48.10;;;;;;5082906;28;20043;-73
2023/10/16 13:05:39;;;;;;;3.03;0.50;;;19.60;49.30;;;;;;5085671;28;20049;-74
2023/10/16 13:08:07;;;;;;;0.70;0.65;;;19.60;50.10;;;;;;5085167;28;20073;-73
2023/10/16 13:10:32;;;;;;;1.85;0.60;;;19.60;48.90;;;;;;5089998;28;20517;-73
2023/10/16 13:12:59;;;;;;;0.57;0.57;;;19.60;49.60;;;;;;5085304;28;20052;-73
2023/10/16 13:15:25;;;;;;;0.95;0.85;;;19.70;49.30;;;;;;5070974;28;20047;-73
2023/10/16 13:17:52;;;;;;;0.47;0.40;;;19.70;48.40;;;;;;5080220;28;20048;-73
2023/10/16 13:20:17;;;;;;;0.55;0.52;;;19.60;48.10;;;;;;5094692;28;20480;-74
2023/10/16 13:22:44;;;;;;;0.90;0.60;;;19.70;50.70;;;;;;5085844;28;20048;-74
2023/10/16 13:25:13;;;;;;;2.22;0.60;;;19.70;49.60;;;;;;5083786;28;20485;-74
2023/10/16 13:27:39;;;;;;;1.15;0.60;;;19.70;49.00;;;;;;5093406;28;20134;-74
2023/10/16 13:30:11;;;;;;;1.20;0.65;;;19.70;49.50;;;;;;5092474;28;20510;-74
2023/10/16 13:32:40;;;;;;;0.60;0.60;;;19.70;48.10;;;;;;5097189;28;20046;-74
2023/10/16 13:35:12;;;;;;;0.73;0.60;;;19.70;47.60;;;;;;5088344;28;20078;-74
2023/10/16 13:37:44;;;;;;;5.45;0.80;;;19.70;46.70;;;;;;5086360;28;20039;-74
2023/10/16 13:40:28;;;;;;;0.50;0.45;;;19.70;47.20;;;;;;5080641;28;20040;-74
2023/10/16 13:42:55;;;;;;;0.63;0.40;;;19.70;47.20;;;;;;5088945;28;20528;-74
2023/10/16 13:45:21;;;;;;;0.50;0.40;;;19.70;45.90;;;;;;5096578;28;20063;-74
2023/10/16 13:47:47;;;;;;;0.80;0.50;;;19.70;49.70;;;;;;5092197;28;20104;-74
2023/10/16 13:50:13;;;;;;;0.60;0.60;;;19.70;51.40;;;;;;5110030;28;20043;-74
2023/10/16 13:52:43;;;;;;;1.65;0.68;;;19.70;51.00;;;;;;5088017;28;20133;-73
2023/10/16 13:55:12;;;;;;;0.50;0.50;;;19.80;51.20;;;;;;5106585;28;20040;-73
2023/10/16 13:57:42;;;;;;;0.40;0.40;;;19.80;51.00;;;;;;5095512;28;20111;-74
2023/10/16 14:00:57;;;;;;;0.90;0.52;;;19.80;51.30;;;;;;5090602;28;20036;-74
2023/10/16 14:03:21;;;;;;;1.10;0.30;;;19.80;51.80;;;;;;5074687;28;20533;-74
2023/10/16 14:05:47;;;;;;;0.75;0.30;;;19.80;51.90;;;;;;5093207;28;20040;-74
2023/10/16 14:08:17;;;;;;;0.70;0.60;;;19.90;51.80;;;;;;5093667;28;20115;-74
2023/10/16 14:10:49;;;;;;;0.50;0.50;;;19.80;52.50;;;;;;5094955;28;20052;-73
2023/10/16 14:13:18;;;;;;;0.57;0.30;;;19.80;52.50;;;;;;5095072;28;20046;-73
2023/10/16 14:15:45;;;;;;;1.00;0.60;;;19.80;52.70;;;;;;5084576;28;20079;-73
2023/10/16 14:18:15;;;;;;;0.52;0.45;;;19.80;52.80;;;;;;5091981;28;20036;-73
2023/10/16 14:20:45;;;;;;;0.52;0.52;;;19.80;53.30;;;;;;5076355;28;20485;-73
2023/10/16 14:23:11;;;;;;;1.02;0.50;;;19.80;53.30;;;;;;5085733;28;20036;-73
2023/10/16 14:25:45;;;;;;;0.35;0.35;;;19.80;53.30;;;;;;5091608;28;20133;-73
2023/10/16 14:30:56;;;;;;;;;;;19.90;53.80;;;;;;5080219;28;20051;-73
2023/10/16 14:33:25;;;;;;;0.45;0.43;;;19.90;53.90;;;;;;5086631;28;19924;-73